Time;durP1;ratioP1;P1;durP2;ratioP2;P2;SDS_P1;SDS_P2;PMS_P1;PMS_P2;Temp;Humidity;BMP_temperature;BMP_pressure;BME280_temperature;BME280_humidity;BME280_pressure;Samples;Min_cycle;Max_cycle;Signal;HPM_P1;HPM_P2
2023/03/01 00:00:37;;;;;;;13.25;11.95;;;;;;;-2.58;79.78;102914.53;6205963;23;20749;-81
2023/03/01 00:03:03;;;;;;;13.63;12.25;;;;;;;-2.60;79.43;102910.97;6207410;23;20016;-81
2023/03/01 00:05:28;;;;;;;13.45;12.00;;;;;;;-2.57;80.79;102912.81;6207821;23;20013;-81
2023/03/01 00:07:54;;;;;;;14.18;12.68;;;;;;;-2.60;80.03;102905.75;6180445;23;20046;-80
2023/03/01 00:10:19;;;;;;;12.75;11.50;;;;;;;-2.53;80.20;102917.28;6204901;23;20008;-81
2023/03/01 00:12:44;;;;;;;12.98;11.68;;;;;;;-2.58;79.88;102914.53;6206115;23;20103;-81
2023/03/01 00:15:10;;;;;;;13.85;11.90;;;;;;;-2.61;80.37;102914.41;6205607;23;20008;-81
2023/03/01 00:17:35;;;;;;;12.70;11.45;;;;;;;-2.60;79.53;102910.97;6206153;23;20035;-81
2023/03/01 00:20:00;;;;;;;13.50;12.15;;;;;;;-2.60;79.56;102904.88;6206827;23;20238;-81
2023/03/01 00:22:28;;;;;;;17.58;13.07;;;;;;;-2.60;80.04;102916.19;6181524;23;20012;-80
2023/03/01 00:24:53;;;;;;;13.55;12.25;;;;;;;-2.59;79.94;102914.44;6205787;23;20014;-80
2023/03/01 00:27:18;;;;;;;14.00;12.60;;;;;;;-2.62;80.89;102902.22;6207362;23;20087;-81
2023/03/01 00:29:44;;;;;;;14.35;12.13;;;;;;;-2.65;80.53;102906.44;6206632;23;20099;-81
2023/03/01 00:32:09;;;;;;;13.88;12.30;;;;;;;-2.68;80.43;102896.75;6207066;23;20059;-82
2023/03/01 00:34:34;;;;;;;13.93;12.48;;;;;;;-2.69;80.02;102902.81;6205439;23;20430;-81
2023/03/01 00:37:04;;;;;;;13.32;11.93;;;;;;;-2.67;80.54;102903.78;6226327;23;19996;-79
2023/03/01 00:39:31;;;;;;;13.68;12.27;;;;;;;-2.70;80.96;102913.19;6228527;23;19999;-81
2023/03/01 00:41:56;;;;;;;14.18;12.68;;;;;;;-2.74;81.53;102906.09;6221674;23;20005;-81
2023/03/01 00:44:21;;;;;;;13.98;12.65;;;;;;;-2.78;81.41;102916.41;6206948;23;20012;-81
2023/03/01 00:46:47;;;;;;;13.68;12.27;;;;;;;-2.84;82.28;102903.16;6206516;23;20652;-81
2023/03/01 00:49:13;;;;;;;14.60;13.13;;;;;;;-2.81;81.32;102902.38;6208253;23;20035;-81
2023/03/01 00:51:41;;;;;;;13.70;11.73;;;;;;;-2.86;81.53;102909.13;6207087;23;20004;-80
2023/03/01 00:54:08;;;;;;;14.68;13.23;;;;;;;-2.90;81.93;102900.31;6208770;23;20008;-80
2023/03/01 00:56:33;;;;;;;13.45;12.13;;;;;;;-2.92;82.04;102896.78;6207672;23;20009;-81
2023/03/01 00:58:59;;;;;;;13.73;12.35;;;;;;;-2.92;82.21;102891.56;6208379;23;20489;-81
2023/03/01 01:01:29;;;;;;;14.13;12.63;;;;;;;-3.04;82.50;102891.97;6206975;23;20000;-81
2023/03/01 01:04:07;;;;;;;14.15;12.75;;;;;;;-3.06;83.14;102885.81;6207703;23;20036;-81
2023/03/01 01:06:38;;;;;;;13.95;12.63;;;;;;;-3.02;83.28;102887.69;6206416;23;20004;-80
2023/03/01 01:09:08;;;;;;;14.02;11.95;;;;;;;-3.05;83.27;102882.41;6207307;23;20100;-81
2023/03/01 01:11:37;;;;;;;13.18;11.88;;;;;;;-3.16;83.89;102875.00;6205017;23;20040;-81
2023/03/01 01:14:02;;;;;;;14.05;12.02;;;;;;;-3.14;83.16;102868.13;6206911;23;20004;-81
2023/03/01 01:16:28;;;;;;;13.50;12.20;;;;;;;-3.22;83.15;102870.44;6206987;23;20005;-81
2023/03/01 01:18:55;;;;;;;13.32;11.93;;;;;;;-3.18;83.45;102882.75;6207272;23;20009;-81
2023/03/01 01:21:23;;;;;;;13.40;12.00;;;;;;;-3.22;83.49;102877.34;6206885;23;20083;-81
2023/03/01 01:23:49;;;;;;;15.20;12.13;;;;;;;-3.27;83.91;102871.97;6206175;23;20320;-81
2023/03/01 01:26:15;;;;;;;13.35;11.95;;;;;;;-3.26;83.78;102865.94;6207808;23;20055;-81
2023/03/01 01:28:41;;;;;;;13.60;12.23;;;;;;;-3.33;84.04;102853.53;6204159;23;20009;-80
2023/03/01 01:31:07;;;;;;;13.02;11.75;;;;;;;-3.35;84.24;102852.56;6206260;23;20103;-79
2023/03/01 01:33:33;;;;;;;14.30;12.63;;;;;;;-3.31;84.39;102846.66;6206801;23;20005;-80
2023/03/01 01:35:58;;;;;;;13.45;12.00;;;;;;;-3.31;84.64;102839.72;6207374;23;20092;-80
2023/03/01 01:38:23;;;;;;;13.40;12.20;;;;;;;-3.36;84.90;102841.25;6206564;23;20087;-80
2023/03/01 01:40:50;;;;;;;12.40;11.20;;;;;;;-3.29;85.22;102838.06;6203500;23;20001;-79
2023/03/01 01:43:28;;;;;;;13.40;12.00;;;;;;;-3.39;84.93;102835.03;6207127;23;20005;-80
2023/03/01 01:46:00;;;;;;;12.93;11.57;;;;;;;-3.38;85.24;102836.84;6207551;23;20489;-81
2023/03/01 01:48:40;;;;;;;14.02;12.52;;;;;;;-3.42;85.43;102835.84;6207768;23;20008;-81
2023/03/01 01:51:08;;;;;;;13.43;12.23;;;;;;;-3.47;85.05;102826.06;6205416;23;20044;-80
2023/03/01 01:53:34;;;;;;;13.50;12.10;;;;;;;-3.45;85.48;102829.63;6204885;23;20020;-80
2023/03/01 01:56:02;;;;;;;12.98;11.68;;;;;;;-3.48;85.70;102829.50;6208818;23;20425;-80
2023/03/01 01:58:29;;;;;;;13.50;12.18;;;;;;;-3.52;85.77;102833.69;6207558;23;20051;-80
2023/03/01 02:00:55;;;;;;;14.07;12.57;;;;;;;-3.49;85.67;102826.00;6209137;23;20004;-79
2023/03/01 02:03:28;;;;;;;12.82;11.57;;;;;;;-3.55;85.72;102823.19;6209583;23;20004;-80
2023/03/01 02:06:00;;;;;;;;;;;;;;;-3.58;84.07;102826.53;6209432;23;20008;-81
2023/03/01 02:08:30;;;;;;;13.10;11.80;;;;;;;-3.61;85.91;102815.13;6207299;23;19914;-81
2023/03/01 02:10:57;;;;;;;14.02;12.35;;;;;;;-3.64;86.08;102815.00;6206472;23;20062;-80
2023/03/01 02:13:22;;;;;;;13.57;12.18;;;;;;;-3.65;86.02;102816.72;6208500;23;20009;-81
2023/03/01 02:15:48;;;;;;;13.10;11.70;;;;;;;-3.65;86.45;102813.22;6208366;23;20176;-80
2023/03/01 02:18:18;;;;;;;14.50;12.45;;;;;;;-3.67;86.64;102809.69;6209988;23;20729;-82
2023/03/01 02:21:07;;;;;;;12.85;11.55;;;;;;;-3.83;87.78;102790.88;6208482;23;20008;-80
2023/03/01 02:23:33;;;;;;;14.23;12.35;;;;;;;-3.69;87.47;102809.63;6211043;23;20005;-80
2023/03/01 02:26:13;;;;;;;16.83;13.63;;;;;;;-3.74;87.75;102798.16;6210840;23;20008;-80
2023/03/01 02:28:45;;;;;;;16.08;12.05;;;;;;;-3.77;87.53;102801.50;6210613;23;20068;-79
2023/03/01 02:34:00;;;;;;;13.77;11.95;;;;;;;-3.87;87.74;102791.56;6212371;23;20043;-79
2023/03/01 02:36:30;;;;;;;13.68;12.25;;;;;;;-3.90;87.43;102787.97;6230019;23;20001;-80
2023/03/01 02:38:59;;;;;;;13.20;11.88;;;;;;;-3.82;88.02;102812.56;6204718;23;20004;-79
2023/03/01 02:41:28;;;;;;;14.25;12.75;;;;;;;-3.89;88.01;102792.34;6222675;23;20039;-80
2023/03/01 02:43:53;;;;;;;14.60;13.05;;;;;;;-3.87;88.45;102801.09;6213356;23;20004;-80
2023/03/01 02:46:22;;;;;;;13.55;12.15;;;;;;;-3.84;88.14;102809.03;6212853;23;20035;-80
2023/03/01 02:48:56;;;;;;;15.27;12.57;;;;;;;-3.88;88.36;102801.94;6183891;23;20343;-81
2023/03/01 02:51:45;;;;;;;14.13;12.60;;;;;;;-3.92;88.48;102818.25;6213720;23;20096;-79
2023/03/01 02:54:49;;;;;;;16.23;13.15;;;;;;;-3.92;88.74;102810.44;6186093;23;20091;-80
2023/03/01 02:57:16;;;;;;;13.88;12.43;;;;;;;-3.94;88.35;102807.75;6193407;23;20037;-81
2023/03/01 02:59:43;;;;;;;13.55;12.05;;;;;;;-3.91;89.00;102807.00;6208222;23;20000;-80
2023/03/01 03:02:38;;;;;;;15.88;13.50;;;;;;;-3.94;89.48;102809.47;6208464;23;20097;-80
2023/03/01 03:05:08;;;;;;;14.18;12.77;;;;;;;-3.98;89.10;102800.66;6209169;23;20055;-81
2023/03/01 03:07:34;;;;;;;15.27;13.27;;;;;;;-4.00;89.80;102802.31;6208880;23;20013;-80
2023/03/01 03:10:01;;;;;;;14.13;12.73;;;;;;;-4.07;89.39;102793.38;6181881;23;20001;-79
2023/03/01 03:12:26;;;;;;;15.35;13.75;;;;;;;-4.12;89.47;102792.31;6209193;23;20607;-79
2023/03/01 03:14:52;;;;;;;14.60;12.77;;;;;;;-4.13;89.84;102808.75;6209245;23;20251;-80
2023/03/01 03:17:17;;;;;;;14.98;13.40;;;;;;;-4.08;90.17;102802.00;6210489;23;20327;-81
2023/03/01 03:19:45;;;;;;;13.80;12.30;;;;;;;-4.09;90.04;102808.06;6205952;23;20016;-80
2023/03/01 03:22:11;;;;;;;15.57;13.98;;;;;;;-4.08;90.76;102808.94;6209818;23;20035;-80
2023/03/01 03:24:37;;;;;;;14.98;13.48;;;;;;;-4.11;90.84;102808.81;6209305;23;20040;-80
2023/03/01 03:27:04;;;;;;;14.00;12.65;;;;;;;-4.10;90.83;102803.66;6209097;23;20001;-81
2023/03/01 03:29:30;;;;;;;15.57;13.90;;;;;;;-4.15;90.80;102799.97;6208786;23;20004;-80
2023/03/01 03:31:55;;;;;;;16.27;13.55;;;;;;;-4.16;90.91;102806.00;6209648;23;20494;-82
2023/03/01 03:34:20;;;;;;;15.02;13.43;;;;;;;-4.11;91.45;102801.88;6208482;23;20032;-80
2023/03/01 03:36:45;;;;;;;16.13;14.10;;;;;;;-4.06;91.28;102794.25;6180857;23;20028;-80
2023/03/01 03:39:11;;;;;;;15.23;13.38;;;;;;;-4.05;90.95;102794.34;6207413;23;20091;-81
2023/03/01 03:41:36;;;;;;;15.10;13.50;;;;;;;-4.11;90.65;102788.00;6207523;23;20004;-79
2023/03/01 03:44:01;;;;;;;14.48;12.98;;;;;;;-4.09;91.09;102797.66;6207846;23;20000;-81
2023/03/01 03:46:27;;;;;;;14.80;13.30;;;;;;;-4.04;91.25;102800.44;6208151;23;20005;-78
2023/03/01 03:48:52;;;;;;;16.02;13.85;;;;;;;-4.15;91.15;102797.38;6206384;23;20001;-80
2023/03/01 03:51:18;;;;;;;15.77;12.80;;;;;;;-4.12;91.64;102797.50;6208517;23;20032;-79
2023/03/01 03:53:44;;;;;;;14.88;12.90;;;;;;;-4.17;92.18;102793.84;6207436;23;20019;-80
2023/03/01 03:56:10;;;;;;;14.63;13.13;;;;;;;-4.30;91.19;102794.19;6208351;23;20027;-80
2023/03/01 03:58:36;;;;;;;15.20;13.68;;;;;;;-4.22;91.41;102792.78;6206313;23;20434;-81
2023/03/01 04:01:01;;;;;;;15.90;13.60;;;;;;;-4.28;91.58;102789.91;6208100;23;20051;-81
2023/03/01 04:03:28;;;;;;;15.10;13.23;;;;;;;-4.30;91.96;102786.38;6207412;23;20071;-80
2023/03/01 04:05:53;;;;;;;15.70;13.85;;;;;;;-4.33;91.93;102787.13;6208834;23;20009;-79
2023/03/01 04:08:21;;;;;;;17.38;13.98;;;;;;;-4.33;92.60;102787.13;6181030;23;20015;-80
2023/03/01 04:10:48;;;;;;;15.00;13.40;;;;;;;-4.30;92.88;102787.25;6209089;23;20409;-78
2023/03/01 04:13:18;;;;;;;15.20;12.90;;;;;;;-4.43;93.09;102765.88;6214332;23;20008;-78
2023/03/01 04:15:44;;;;;;;14.93;13.38;;;;;;;-4.35;92.89;102769.69;6184315;23;20042;-80
2023/03/01 04:18:13;;;;;;;16.30;13.95;;;;;;;-4.37;92.90;102767.03;6185470;23;20430;-80
2023/03/01 04:20:38;;;;;;;16.23;13.68;;;;;;;-4.33;93.03;102765.44;6209783;23;20020;-80
2023/03/01 04:23:15;;;;;;;14.85;13.40;;;;;;;-4.40;92.46;102768.59;6209569;23;20420;-80
2023/03/01 04:25:54;;;;;;;16.30;14.40;;;;;;;-4.34;93.33;102772.34;6206878;23;20008;-80
2023/03/01 04:28:34;;;;;;;15.75;14.13;;;;;;;-4.42;93.18;102752.97;6207460;23;20469;-79
2023/03/01 04:31:13;;;;;;;14.57;13.07;;;;;;;-4.37;93.41;102769.63;6183695;23;20406;-80
2023/03/01 04:33:40;;;;;;;16.15;14.43;;;;;;;-4.34;93.53;102764.56;6209743;23;20032;-80
2023/03/01 04:36:08;;;;;;;17.70;14.38;;;;;;;-4.34;93.71;102763.69;6189486;23;20024;-81
2023/03/01 04:38:34;;;;;;;15.15;13.60;;;;;;;-4.33;93.82;102758.53;6222797;23;20008;-79
2023/03/01 04:40:59;;;;;;;15.27;13.65;;;;;;;-4.38;93.61;102753.97;6225360;23;20008;-79
2023/03/01 04:43:24;;;;;;;15.95;14.25;;;;;;;-4.39;93.65;102752.19;6214452;23;20084;-79
2023/03/01 04:45:50;;;;;;;15.57;13.45;;;;;;;-4.45;93.94;102744.16;6207160;23;20083;-80
2023/03/01 04:48:16;;;;;;;17.17;15.15;;;;;;;-4.46;94.24;102734.59;6206643;23;20004;-80
2023/03/01 04:50:41;;;;;;;17.30;14.60;;;;;;;-4.48;93.92;102739.69;6204016;23;20335;-81
2023/03/01 04:53:06;;;;;;;16.65;14.95;;;;;;;-4.52;93.95;102743.00;6207274;23;20008;-81
2023/03/01 04:55:31;;;;;;;17.40;15.23;;;;;;;-4.54;94.29;102735.16;6206564;23;20004;-80
2023/03/01 04:57:57;;;;;;;16.17;14.48;;;;;;;-4.61;94.59;102745.22;6207374;23;20005;-79
2023/03/01 05:00:23;;;;;;;18.45;15.45;;;;;;;-4.63;95.18;102723.50;6207410;23;20009;-80
2023/03/01 05:03:00;;;;;;;18.35;14.85;;;;;;;-4.57;95.39;102747.13;6207613;23;20028;-78
2023/03/01 05:05:29;;;;;;;16.85;14.05;;;;;;;-4.57;95.15;102745.41;6206743;23;20017;-80
2023/03/01 05:07:57;;;;;;;16.55;14.93;;;;;;;-4.61;95.24;102746.09;6206790;23;20453;-80
2023/03/01 05:10:23;;;;;;;16.08;13.98;;;;;;;-4.60;95.48;102755.69;6207507;23;20015;-81
2023/03/01 05:12:49;;;;;;;17.20;14.48;;;;;;;-4.58;95.80;102751.44;6207200;23;20004;-80
2023/03/01 05:15:15;;;;;;;16.67;14.93;;;;;;;-4.61;95.38;102750.41;6206574;23;20027;-80
2023/03/01 05:17:40;;;;;;;18.95;15.32;;;;;;;-4.58;95.85;102750.56;6206205;23;20481;-80
2023/03/01 05:20:08;;;;;;;17.38;15.38;;;;;;;-4.60;95.45;102739.19;6206824;23;20140;-80
2023/03/01 05:22:34;;;;;;;15.82;14.15;;;;;;;-4.75;94.74;102749.84;6206283;23;20008;-81
2023/03/01 05:24:59;;;;;;;16.65;14.80;;;;;;;-4.73;95.47;102737.78;6180433;23;20014;-79
2023/03/01 05:27:25;;;;;;;16.75;15.07;;;;;;;-4.76;96.06;102729.88;6207207;23;20036;-80
2023/03/01 05:29:50;;;;;;;16.40;14.68;;;;;;;-4.71;96.13;102733.56;6206690;23;20450;-81
2023/03/01 05:32:16;;;;;;;17.98;14.65;;;;;;;-4.83;95.48;102722.66;6212784;23;20088;-80
2023/03/01 05:34:41;;;;;;;17.13;14.65;;;;;;;-4.78;95.68;102723.72;6210163;23;20087;-80
2023/03/01 05:37:08;;;;;;;16.77;14.55;;;;;;;-4.77;96.05;102712.50;6212264;23;20004;-80
2023/03/01 05:39:33;;;;;;;17.98;15.27;;;;;;;-4.85;95.84;102713.91;6211222;23;20015;-80
2023/03/01 05:42:01;;;;;;;16.88;14.95;;;;;;;-5.01;95.85;102715.88;6212947;23;20000;-81
2023/03/01 05:44:27;;;;;;;16.98;15.02;;;;;;;-5.10;96.06;102714.56;6211991;23;20036;-80
2023/03/01 05:46:53;;;;;;;16.45;13.85;;;;;;;-5.29;95.39;102703.41;6209941;23;20009;-81
2023/03/01 05:49:19;;;;;;;17.05;14.75;;;;;;;-5.13;96.97;102717.03;6207550;23;20008;-81
2023/03/01 05:51:48;;;;;;;17.73;15.27;;;;;;;-5.15;97.66;102711.78;6208493;23;20067;-80
2023/03/01 05:54:14;;;;;;;17.52;14.95;;;;;;;-5.19;97.58;102709.84;6181904;23;20010;-80
2023/03/01 05:56:39;;;;;;;18.77;15.45;;;;;;;-5.18;97.06;102705.56;6207130;23;20001;-81
2023/03/01 05:59:05;;;;;;;16.75;15.00;;;;;;;-5.21;97.19;102715.81;6207283;23;20553;-81
2023/03/01 06:01:32;;;;;;;19.13;15.63;;;;;;;-5.27;97.77;102713.84;6207933;23;20031;-81
2023/03/01 06:03:57;;;;;;;19.52;15.50;;;;;;;-5.37;97.44;102711.66;6208777;23;20016;-81
2023/03/01 06:06:23;;;;;;;17.67;15.00;;;;;;;-5.35;97.97;102703.13;6207458;23;20015;-81
2023/03/01 06:08:49;;;;;;;16.60;14.68;;;;;;;-5.46;97.79;102703.47;6207757;23;20074;-81
2023/03/01 06:11:15;;;;;;;16.75;15.05;;;;;;;-5.33;98.69;102703.19;6210057;23;20001;-77
2023/03/01 06:13:45;;;;;;;17.73;15.90;;;;;;;-5.31;99.20;102706.72;6207726;23;20063;-79
2023/03/01 06:16:11;;;;;;;17.65;15.50;;;;;;;-5.39;98.49;102702.91;6208978;23;20000;-79
2023/03/01 06:18:37;;;;;;;18.15;15.38;;;;;;;-5.39;98.74;102710.69;6206846;23;20454;-79
2023/03/01 06:21:04;;;;;;;17.17;15.38;;;;;;;-5.45;98.70;102711.31;6209406;23;20004;-79
2023/03/01 06:23:30;;;;;;;19.10;15.48;;;;;;;-5.48;98.77;102707.69;6208318;23;20031;-79
2023/03/01 06:25:55;;;;;;;19.00;15.85;;;;;;;-5.41;99.36;102709.75;6208466;23;20001;-81
2023/03/01 06:28:21;;;;;;;17.45;15.45;;;;;;;-5.39;99.64;102710.69;6208354;23;20016;-81
2023/03/01 06:30:46;;;;;;;17.42;15.52;;;;;;;-5.40;99.81;102712.41;6208129;23;20008;-80
2023/03/01 06:33:12;;;;;;;17.80;15.90;;;;;;;-5.47;99.54;102719.88;6210083;23;20008;-80
2023/03/01 06:35:37;;;;;;;19.00;16.05;;;;;;;-5.43;99.84;102714.88;6207962;23;20004;-80
2023/03/01 06:38:04;;;;;;;17.55;15.43;;;;;;;-5.38;99.52;102723.75;6210956;23;20020;-79
2023/03/01 06:40:31;;;;;;;17.50;15.70;;;;;;;-5.35;99.76;102722.97;6227248;23;20020;-79
2023/03/01 06:42:57;;;;;;;17.92;16.10;;;;;;;-5.39;99.51;102719.41;6228793;23;20004;-79
2023/03/01 06:45:22;;;;;;;16.80;15.02;;;;;;;-5.44;98.85;102715.69;6219622;23;20004;-79
2023/03/01 06:47:48;;;;;;;19.45;16.45;;;;;;;-5.33;99.70;102719.66;6208543;23;20139;-79
2023/03/01 06:50:14;;;;;;;20.23;16.90;;;;;;;-5.29;100.00;102720.69;6209003;23;20009;-79
2023/03/01 06:52:40;;;;;;;20.20;16.58;;;;;;;-5.22;100.00;102712.34;6207762;23;20089;-80
2023/03/01 06:55:06;;;;;;;20.17;15.93;;;;;;;-5.20;99.74;102715.00;6181922;23;20008;-79
2023/03/01 06:57:31;;;;;;;18.88;16.65;;;;;;;-5.14;100.00;102712.66;6208197;23;20008;-78
2023/03/01 06:59:57;;;;;;;19.98;16.73;;;;;;;-5.20;100.00;102696.81;6182136;23;20001;-79
2023/03/01 07:02:22;;;;;;;18.17;16.23;;;;;;;-5.08;100.00;102703.44;6206989;23;20011;-79
2023/03/01 07:04:51;;;;;;;21.27;17.13;;;;;;;-5.02;100.00;102693.31;6180785;23;20371;-79
2023/03/01 07:07:18;;;;;;;19.35;16.45;;;;;;;-4.96;100.00;102692.69;6207569;23;20031;-80
2023/03/01 07:09:44;;;;;;;19.45;17.27;;;;;;;-4.97;99.68;102690.91;6207038;23;20008;-80
2023/03/01 07:12:10;;;;;;;19.08;16.83;;;;;;;-4.92;99.43;102701.50;6209388;23;20095;-80
2023/03/01 07:14:35;;;;;;;21.77;17.52;;;;;;;-4.81;99.24;102711.53;6206166;23;20079;-79
2023/03/01 07:17:00;;;;;;;18.42;16.45;;;;;;;-4.88;98.71;102708.59;6205741;23;20015;-80
2023/03/01 07:19:26;;;;;;;19.25;16.23;;;;;;;-4.89;98.67;102712.91;6207317;23;20008;-81
2023/03/01 07:21:51;;;;;;;20.15;16.67;;;;;;;-4.74;98.83;102736.03;6155534;23;20008;-79
2023/03/01 07:24:16;;;;;;;18.98;16.73;;;;;;;-4.74;99.20;102730.81;6205980;23;20005;-80
2023/03/01 07:26:42;;;;;;;19.33;16.30;;;;;;;-4.73;98.64;102717.00;6204556;23;20009;-80
2023/03/01 07:29:10;;;;;;;18.55;16.55;;;;;;;-4.56;98.51;102726.38;6206540;23;20032;-80
2023/03/01 07:31:36;;;;;;;19.75;17.15;;;;;;;-4.51;98.71;102718.81;6205803;23;20016;-80
2023/03/01 07:34:02;;;;;;;20.20;17.25;;;;;;;-4.40;98.44;102727.00;6207001;23;20375;-80
2023/03/01 07:36:28;;;;;;;20.02;16.42;;;;;;;-4.42;98.21;102728.69;6206759;23;20039;-80
2023/03/01 07:38:55;;;;;;;20.05;16.88;;;;;;;-4.36;98.50;102714.19;6206418;23;20005;-80
2023/03/01 07:41:20;;;;;;;18.77;15.98;;;;;;;-4.21;97.92;102724.34;6205639;23;20011;-80
2023/03/01 07:43:46;;;;;;;20.08;16.55;;;;;;;-4.13;97.76;102725.53;6205942;23;20088;-79
2023/03/01 07:46:11;;;;;;;19.52;17.30;;;;;;;-4.06;97.52;102719.72;6207293;23;20004;-79
2023/03/01 07:48:37;;;;;;;21.00;17.38;;;;;;;-3.96;97.32;102725.31;6204798;23;20004;-81
2023/03/01 07:51:05;;;;;;;18.90;16.30;;;;;;;-3.90;96.49;102731.63;6206769;23;20063;-80
2023/03/01 07:53:31;;;;;;;21.00;16.83;;;;;;;-3.82;96.59;102724.09;6205950;23;20004;-80
2023/03/01 07:56:01;;;;;;;18.42;16.50;;;;;;;-3.79;96.00;102729.44;6207082;23;20075;-81
2023/03/01 07:58:27;;;;;;;21.00;16.75;;;;;;;-3.75;95.97;102726.13;6211914;23;20337;-82
2023/03/01 08:00:52;;;;;;;19.98;15.85;;;;;;;-3.62;95.69;102722.25;6209981;23;20032;-82
2023/03/01 08:03:17;;;;;;;19.67;16.75;;;;;;;-3.55;95.54;102726.88;6211592;23;20082;-83
2023/03/01 08:05:42;;;;;;;19.23;15.32;;;;;;;-3.47;95.06;102720.19;6180377;23;20403;-83
2023/03/01 08:08:08;;;;;;;19.90;16.20;;;;;;;-3.36;95.00;102728.41;6207117;23;20004;-80
2023/03/01 08:10:33;;;;;;;18.98;15.85;;;;;;;-3.33;94.60;102715.53;6211988;23;20016;-83
2023/03/01 08:12:58;;;;;;;16.98;14.55;;;;;;;-3.14;93.80;102730.06;6208325;23;20004;-83
2023/03/01 08:15:24;;;;;;;21.25;14.90;;;;;;;-3.06;93.23;102720.81;6208657;23;20012;-82
2023/03/01 08:17:52;;;;;;;18.27;15.10;;;;;;;-2.95;92.38;102715.97;6206228;23;20051;-81
2023/03/01 08:20:18;;;;;;;16.70;14.95;;;;;;;-2.88;92.30;102716.25;6207130;23;20040;-82
2023/03/01 08:22:43;;;;;;;16.60;14.80;;;;;;;-2.85;92.13;102705.03;6206602;23;20008;-82
2023/03/01 08:25:09;;;;;;;18.75;15.07;;;;;;;-2.73;91.50;102715.88;6206942;23;20039;-83
2023/03/01 08:27:34;;;;;;;16.25;14.25;;;;;;;-2.68;91.05;102719.50;6203664;23;20015;-83
2023/03/01 08:30:00;;;;;;;17.58;14.27;;;;;;;-2.59;90.87;102718.94;6207101;23;20080;-82
2023/03/01 08:32:27;;;;;;;18.15;14.73;;;;;;;-2.54;90.45;102707.84;6207576;23;20043;-83
2023/03/01 08:34:53;;;;;;;15.05;13.50;;;;;;;-2.37;89.27;102721.41;6207120;23;20012;-82
2023/03/01 08:37:18;;;;;;;15.60;13.32;;;;;;;-2.34;89.11;102705.88;6206173;23;20004;-83
2023/03/01 08:39:43;;;;;;;14.55;12.98;;;;;;;-2.28;89.13;102699.97;6206014;23;20015;-82
2023/03/01 08:42:09;;;;;;;15.23;13.38;;;;;;;-2.21;88.37;102699.31;6207572;23;20430;-83
2023/03/01 08:44:34;;;;;;;13.73;12.07;;;;;;;-2.08;87.83;102703.19;6209056;23;20078;-81
2023/03/01 08:47:00;;;;;;;14.60;12.75;;;;;;;-1.95;86.11;102694.00;6211248;23;20008;-80
2023/03/01 08:49:25;;;;;;;15.45;13.43;;;;;;;-1.85;85.77;102690.81;6216353;23;20081;-81
2023/03/01 08:51:51;;;;;;;13.43;12.10;;;;;;;-1.74;85.26;102692.03;6218453;23;20005;-82
2023/03/01 08:54:20;;;;;;;14.20;12.52;;;;;;;-1.64;84.33;102701.91;6217755;23;20001;-82
2023/03/01 08:56:46;;;;;;;16.05;12.10;;;;;;;-1.57;84.20;102693.41;6208856;23;20333;-82
2023/03/01 08:59:13;;;;;;;13.10;11.80;;;;;;;-1.45;84.41;102689.38;6210656;23;20024;-83
2023/03/01 09:01:39;;;;;;;14.98;13.13;;;;;;;-1.36;83.44;102679.19;6211200;23;20008;-83
2023/03/01 09:04:06;;;;;;;14.15;12.65;;;;;;;-1.34;85.12;102680.09;6209476;23;20017;-82
2023/03/01 09:06:32;;;;;;;14.35;12.82;;;;;;;-1.26;83.23;102683.81;6209613;23;20009;-83
2023/03/01 09:08:58;;;;;;;15.00;11.88;;;;;;;-1.19;81.99;102675.28;6209310;23;20478;-82
2023/03/01 09:11:24;;;;;;;16.13;12.68;;;;;;;-1.12;81.48;102666.78;6209472;23;20000;-81
2023/03/01 09:13:50;;;;;;;13.82;12.23;;;;;;;-0.99;80.49;102673.22;6209475;23;20011;-83
2023/03/01 09:16:19;;;;;;;14.60;12.55;;;;;;;-0.88;81.20;102671.75;6209610;23;20505;-81
2023/03/01 09:18:45;;;;;;;14.85;12.77;;;;;;;-0.80;80.30;102671.94;6208909;23;20031;-83
2023/03/01 09:21:13;;;;;;;14.30;12.80;;;;;;;-0.69;80.21;102664.38;6210426;23;20000;-82
2023/03/01 09:23:41;;;;;;;13.32;11.95;;;;;;;-0.57;78.84;102660.31;6182644;23;20001;-83
2023/03/01 09:26:10;;;;;;;17.00;12.70;;;;;;;-0.40;77.95;102665.94;6208851;23;20038;-83
2023/03/01 09:28:37;;;;;;;13.05;11.75;;;;;;;-0.20;77.60;102657.69;6208321;23;20054;-84
2023/03/01 09:31:03;;;;;;;15.20;12.18;;;;;;;-0.01;75.18;102651.97;6209744;23;20016;-83
2023/03/01 09:33:30;;;;;;;13.98;12.02;;;;;;;0.16;73.37;102653.22;6208990;23;20004;-83
2023/03/01 09:36:00;;;;;;;13.27;11.32;;;;;;;0.66;72.33;102650.72;6207537;23;20110;-83
2023/03/01 09:38:27;;;;;;;12.38;11.05;;;;;;;1.54;69.05;102654.84;6208194;23;20009;-82
2023/03/01 09:40:53;;;;;;;11.15;9.90;;;;;;;2.91;63.38;102651.31;6181313;23;20012;-81
2023/03/01 09:43:18;;;;;;;10.57;9.45;;;;;;;4.67;58.99;102639.19;6208448;23;20016;-81
2023/03/01 09:45:46;;;;;;;10.80;9.50;;;;;;;6.40;53.58;102635.50;6207090;23;20233;-82
2023/03/01 09:48:17;;;;;;;12.82;9.93;;;;;;;7.18;48.35;102642.91;6208397;23;20004;-82
2023/03/01 09:50:46;;;;;;;13.02;9.45;;;;;;;7.64;46.44;102632.78;6204930;23;20427;-83
2023/03/01 09:53:17;;;;;;;10.38;9.30;;;;;;;8.33;44.86;102636.44;6208920;23;20012;-81
2023/03/01 09:55:51;;;;;;;10.10;9.10;;;;;;;8.89;43.02;102617.06;6205152;23;20797;-81
2023/03/01 09:58:41;;;;;;;11.07;9.15;;;;;;;9.51;41.52;102618.69;6208884;23;20004;-83
2023/03/01 10:01:31;;;;;;;10.73;9.57;;;;;;;10.54;42.01;102615.75;6208806;23;20063;-82
2023/03/01 10:04:30;;;;;;;10.18;9.13;;;;;;;11.35;40.33;102610.22;6207940;23;20017;-81
2023/03/01 10:07:13;;;;;;;11.30;10.07;;;;;;;10.92;38.52;102606.84;6206375;23;20493;-80
2023/03/01 10:09:41;;;;;;;11.60;9.97;;;;;;;10.88;36.30;102594.53;6211694;23;20012;-79
2023/03/01 10:12:36;;;;;;;11.40;10.07;;;;;;;11.93;40.27;102593.53;6209871;23;20407;-80
2023/03/01 10:15:02;;;;;;;10.48;9.43;;;;;;;12.51;33.16;102587.41;6206976;23;20484;-81
2023/03/01 10:17:41;;;;;;;10.60;9.32;;;;;;;12.60;33.74;102592.44;6205928;23;20079;-80
2023/03/01 10:20:40;;;;;;;11.15;9.25;;;;;;;13.02;33.95;102583.97;6207838;23;20004;-80
2023/03/01 10:23:08;;;;;;;10.43;9.32;;;;;;;13.39;32.50;102576.47;6206708;23;20212;-80
2023/03/01 10:26:11;;;;;;;10.75;9.65;;;;;;;14.59;33.27;102564.84;6207014;23;20008;-81
2023/03/01 10:29:04;;;;;;;10.95;9.68;;;;;;;15.03;32.42;102562.09;6180451;23;20087;-81
2023/03/01 10:31:43;;;;;;;10.40;9.30;;;;;;;15.23;31.68;102563.09;6207528;23;20001;-82
2023/03/01 10:34:13;;;;;;;10.50;9.40;;;;;;;15.07;28.73;102561.03;6180161;23;20058;-81
2023/03/01 10:36:40;;;;;;;10.27;9.27;;;;;;;15.20;28.17;102559.56;6207098;23;20035;-81
2023/03/01 10:39:21;;;;;;;10.60;9.43;;;;;;;15.35;30.77;102550.00;6207999;23;20007;-81
2023/03/01 10:41:57;;;;;;;11.20;9.43;;;;;;;15.45;28.68;102551.31;6206471;23;20324;-80
2023/03/01 10:44:42;;;;;;;9.88;8.88;;;;;;;15.80;29.95;102558.78;6207913;23;20330;-80
2023/03/01 10:47:27;;;;;;;10.93;9.52;;;;;;;15.24;27.10;102552.28;6208283;23;20080;-81
2023/03/01 10:50:03;;;;;;;9.90;8.88;;;;;;;15.06;26.99;102555.75;6208013;23;20051;-80
2023/03/01 10:52:34;;;;;;;10.05;9.05;;;;;;;15.14;26.72;102553.63;6207828;23;20001;-80
2023/03/01 10:55:31;;;;;;;11.85;9.70;;;;;;;15.94;28.42;102557.22;6208002;23;20005;-79
2023/03/01 10:58:19;;;;;;;10.73;9.63;;;;;;;15.89;27.31;102564.59;6208452;23;20001;-80
2023/03/01 11:01:04;;;;;;;11.20;9.98;;;;;;;15.58;25.62;102550.78;6207833;23;20005;-82
2023/03/01 11:03:36;;;;;;;10.23;9.20;;;;;;;15.11;26.47;102554.63;6211473;23;20762;-79
2023/03/01 11:06:21;;;;;;;10.63;9.55;;;;;;;15.71;26.73;102549.31;6217933;23;20088;-80
2023/03/01 11:08:49;;;;;;;11.88;10.15;;;;;;;15.77;25.74;102543.69;6224004;23;20010;-85
2023/03/01 11:11:17;;;;;;;11.27;9.60;;;;;;;15.93;26.44;102549.22;6223380;23;20000;-81
2023/03/01 11:14:07;;;;;;;9.88;8.85;;;;;;;16.89;26.00;102554.47;6209232;23;20617;-82
2023/03/01 11:16:37;;;;;;;10.98;9.88;;;;;;;16.59;24.79;102546.94;6205291;23;20099;-80
2023/03/01 11:19:08;;;;;;;10.35;9.35;;;;;;;16.76;25.45;102550.63;6209330;23;20512;-79
2023/03/01 11:21:36;;;;;;;10.13;9.13;;;;;;;17.06;24.17;102559.00;6210157;23;20347;-80